Weather History for Boone, NC

Change the Weather History Date:

Monday, May 26, 2014

  Actual Average (KGEV) Record (KGEV)
Temperature  
Mean Temperature 64 °F -  
Max Temperature 78 °F 71 °F 82 °F (1989)
Min Temperature 51 °F 50 °F 33 °F (1988)
Growing Degree Days 14 (Base 50)    
Moisture  
Dew Point 54 °F    
Average Humidity 72    
Maximum Humidity 100    
Minimum Humidity 38    
Precipitation  
Precipitation 0.00 in - - ()
Sea Level Pressure  
Sea Level Pressure 30.25 in    
Wind  
Wind Speed 4 mph (WNW)    
Max Wind Speed 15 mph    
Max Gust Speed 22 mph    
Visibility 10 miles    
Events Thunderstorm    
Averages and records for this station are not official NWS values.
T = Trace of Precipitation, MM = Missing Value Source: NWS Daily Summary

Daily Weather History Graph

Daily Weather History Graph

Search for Another Location

Airport:

Trip Planner

Search our weather history database for the weather conditions in past years. The results will help you decide how hot, cold, wet, or windy it might be!

Date:

Astronomy

May. 26, 2014 Rise Set
Actual Time 6:13 AM EDT 8:34 PM EDT
Civil Twilight 5:43 AM EDT 9:03 PM EDT
Nautical Twilight 5:07 AM EDT 9:40 PM EDT
Astronomical Twilight 4:28 AM EDT 10:20 PM EDT
Moon 4:49 AM EDT (5/26) 6:39 PM EDT (5/26)
Length of Visible Light 15h 20m
Length of Day
14h 21m
Waning Crescent, 5% of the Moon is Illuminated
May 26
Waning Crescent
May 28
New
Jun 5
First Quarter
Jun 13
Full
Jun 19
Last Quarter

Hourly Weather History & Observations

Time (EDT) Temp. Dew Point Humidity Pressure Visibility Wind Dir Wind Speed Gust Speed Precip Events Conditions
12:15 AM 56.1 °F 56.1 °F 100% 30.26 in 5.0 mi NW 4.6 mph - N/A   Clear
12:35 AM 57.2 °F 56.5 °F 97% 30.26 in 10.0 mi Calm Calm - N/A   Clear
12:55 AM 56.8 °F 56.3 °F 98% 30.26 in 10.0 mi NNW 3.5 mph - N/A   Clear
1:15 AM 56.3 °F 55.6 °F 97% 30.26 in 10.0 mi Calm Calm - N/A   Clear
1:35 AM 56.3 °F 55.4 °F 97% 30.26 in 10.0 mi Calm Calm - N/A   Clear
1:55 AM 55.8 °F 55.0 °F 97% 30.25 in 10.0 mi Calm Calm - N/A   Clear
2:15 AM 55.6 °F 54.9 °F 97% 30.25 in 10.0 mi Calm Calm - N/A   Clear
2:35 AM 55.0 °F 54.5 °F 98% 30.25 in 10.0 mi NNW 3.5 mph - N/A   Clear
2:55 AM 55.4 °F 54.9 °F 98% 30.24 in 10.0 mi Calm Calm - N/A   Clear
3:15 AM 55.4 °F 54.5 °F 97% 30.24 in 10.0 mi Calm Calm - N/A   Clear
3:35 AM 54.3 °F 53.6 °F 97% 30.24 in 10.0 mi Calm Calm - N/A   Clear
3:55 AM 54.0 °F 53.6 °F 99% 30.25 in 10.0 mi Calm Calm - N/A   Clear
4:15 AM 53.4 °F 53.1 °F 99% 30.25 in 10.0 mi Calm Calm - N/A   Clear
4:35 AM 53.6 °F 52.9 °F 97% 30.25 in 10.0 mi Calm Calm - N/A   Clear
4:55 AM 53.6 °F 52.9 °F 97% 30.25 in 10.0 mi Calm Calm - N/A   Clear
5:15 AM 52.9 °F 52.3 °F 98% 30.25 in 10.0 mi Calm Calm - N/A   Clear
5:35 AM 52.7 °F 52.2 °F 98% 30.25 in 10.0 mi Calm Calm - N/A   Clear
5:55 AM 51.8 °F 51.4 °F 99% 30.26 in 10.0 mi Calm Calm - N/A   Clear
6:15 AM 51.8 °F 51.8 °F 100% 30.27 in 10.0 mi Calm Calm - N/A   Clear
6:35 AM 51.4 °F 50.7 °F 97% 30.27 in 7.0 mi Calm Calm - N/A   Clear
6:55 AM 52.3 °F 51.8 °F 98% 30.27 in 10.0 mi Calm Calm - N/A   Clear
7:15 AM 52.7 °F 52.0 °F 97% 30.27 in 7.0 mi Calm Calm - N/A   Clear
7:35 AM 54.0 °F 52.7 °F 95% 30.28 in 10.0 mi Calm Calm - N/A   Clear
7:55 AM 56.8 °F 54.7 °F 92% 30.27 in 10.0 mi Calm Calm - N/A   Clear
8:15 AM 59.0 °F 57.0 °F 93% 30.28 in 10.0 mi Calm Calm - N/A   Clear
8:35 AM 61.7 °F 58.5 °F 89% 30.28 in 10.0 mi Calm Calm - N/A   Clear
8:55 AM 65.7 °F 52.7 °F 63% 30.28 in 10.0 mi West 10.4 mph - N/A   Clear
9:15 AM 66.7 °F 52.5 °F 60% 30.28 in 10.0 mi West 8.1 mph - N/A   Clear
9:35 AM 68.4 °F 52.5 °F 57% 30.29 in 10.0 mi WNW 12.7 mph - N/A   Clear
9:55 AM 69.1 °F 52.5 °F 55% 30.29 in 10.0 mi WNW 10.4 mph 18.4 mph N/A   Clear
10:15 AM 69.3 °F 51.8 °F 54% 30.29 in 10.0 mi NW 13.8 mph 21.9 mph N/A   Clear
10:35 AM 69.8 °F 52.9 °F 55% 30.29 in 10.0 mi WNW 15.0 mph 21.9 mph N/A   Clear
10:55 AM 70.7 °F 53.6 °F 55% 30.29 in 10.0 mi NW 15.0 mph - N/A   Clear
11:15 AM 71.1 °F 54.5 °F 56% 30.29 in 10.0 mi WNW 10.4 mph 19.6 mph N/A   Clear
11:35 AM 71.4 °F 54.3 °F 55% 30.29 in 10.0 mi NNW 13.8 mph 19.6 mph N/A   Clear
11:55 AM 72.5 °F 54.5 °F 53% 30.29 in 10.0 mi NNW 9.2 mph 19.6 mph N/A   Clear
12:15 PM 72.3 °F 54.9 °F 54% 30.29 in 10.0 mi NW 9.2 mph 18.4 mph N/A   Clear
12:35 PM 72.5 °F 54.7 °F 53% 30.28 in 10.0 mi NNW 8.1 mph 17.3 mph N/A   Clear
12:55 PM 73.0 °F 54.1 °F 51% 30.28 in 10.0 mi WNW 13.8 mph 18.4 mph N/A Thunderstorm Clear
1:15 PM 72.7 °F 53.8 °F 51% 30.27 in 10.0 mi NW 12.7 mph 19.6 mph N/A   Clear
1:35 PM 74.3 °F 52.9 °F 47% 30.27 in 10.0 mi NW 9.2 mph 17.3 mph N/A   Clear
1:55 PM 74.1 °F 52.5 °F 47% 30.26 in 10.0 mi WNW 12.7 mph 17.3 mph N/A   Clear
2:15 PM 76.6 °F 52.3 °F 43% 30.26 in 10.0 mi NW 8.1 mph 17.3 mph N/A   Clear
2:35 PM 75.6 °F 51.3 °F 42% 30.25 in 10.0 mi NNW 12.7 mph - N/A   Clear
2:55 PM 75.9 °F 50.5 °F 41% 30.24 in 10.0 mi NW 9.2 mph 18.4 mph N/A   Clear
3:15 PM 77.2 °F 50.4 °F 39% 30.23 in 10.0 mi WNW 9.2 mph 16.1 mph N/A   Clear
3:35 PM 76.6 °F 50.0 °F 39% 30.23 in 10.0 mi NNW 5.8 mph - N/A   Clear
3:55 PM 77.0 °F 50.5 °F 39% 30.22 in 10.0 mi NNW 11.5 mph 18.4 mph N/A   Clear
4:15 PM 77.0 °F 50.7 °F 40% 30.21 in 10.0 mi NW 8.1 mph - N/A   Clear
4:35 PM 76.5 °F 50.2 °F 40% 30.21 in 10.0 mi WNW 10.4 mph 16.1 mph N/A   Clear
4:55 PM 77.4 °F 50.4 °F 39% 30.21 in 10.0 mi WNW 9.2 mph 17.3 mph N/A Thunderstorm Clear
5:15 PM 78.1 °F 50.4 °F 38% 30.20 in 10.0 mi WNW 5.8 mph - N/A   Clear
5:35 PM 77.4 °F 50.5 °F 39% 30.20 in 10.0 mi NW 8.1 mph - N/A   Clear
5:55 PM 75.9 °F 56.5 °F 51% 30.20 in 10.0 mi South 3.5 mph - N/A   Clear
6:15 PM 74.7 °F 57.7 °F 55% 30.20 in 10.0 mi SSW 5.8 mph - N/A   Scattered Clouds
6:35 PM 74.3 °F 58.5 °F 58% 30.20 in 10.0 mi WSW 9.2 mph - N/A   Scattered Clouds
6:55 PM 73.2 °F 57.9 °F 59% 30.20 in 10.0 mi SW 6.9 mph - N/A   Scattered Clouds
7:15 PM 72.7 °F 56.3 °F 56% 30.20 in 10.0 mi WSW 4.6 mph - N/A   Clear
7:35 PM 73.6 °F 55.4 °F 53% 30.21 in 10.0 mi WSW 4.6 mph - N/A   Clear
7:55 PM 73.0 °F 54.5 °F 52% 30.21 in 10.0 mi West 4.6 mph - N/A   Clear
8:15 PM 71.4 °F 55.4 °F 57% 30.21 in 10.0 mi Calm Calm - N/A   Clear
8:35 PM 66.2 °F 57.2 °F 73% 30.21 in 10.0 mi Calm Calm - N/A   Clear
8:55 PM 67.6 °F 56.1 °F 67% 30.21 in 10.0 mi SW 4.6 mph - N/A   Clear
9:15 PM 65.8 °F 56.7 °F 72% 30.21 in 10.0 mi Calm Calm - N/A   Clear
9:35 PM 64.8 °F 56.3 °F 74% 30.21 in 10.0 mi Calm Calm - N/A   Clear
9:55 PM 63.0 °F 57.0 °F 81% 30.22 in 10.0 mi Calm Calm - N/A   Clear
10:15 PM 63.3 °F 56.7 °F 79% 30.23 in 10.0 mi Calm Calm - N/A   Clear
10:35 PM 62.4 °F 57.4 °F 84% 30.23 in 10.0 mi Calm Calm - N/A   Clear
10:55 PM 60.6 °F 57.0 °F 88% 30.23 in 10.0 mi Calm Calm - N/A   Clear
11:15 PM 60.3 °F 58.8 °F 95% 30.23 in 10.0 mi Calm Calm - N/A   Clear
11:35 PM 58.5 °F 58.1 °F 99% 30.24 in 7.0 mi Calm Calm - N/A   Clear
11:55 PM 57.9 °F 57.2 °F 97% 30.24 in 7.0 mi Calm Calm - N/A   Clear